createdAt,value
2023-05-10T00:02:01.890Z,14.00
2023-05-10T00:06:07.588Z,14.00
2023-05-10T00:10:13.309Z,13.90
2023-05-10T00:14:19.556Z,13.90
2023-05-10T00:18:25.407Z,13.80
2023-05-10T00:22:31.142Z,13.80
2023-05-10T00:26:36.861Z,13.80
2023-05-10T00:30:42.516Z,13.70
2023-05-10T00:34:48.023Z,13.70
2023-05-10T00:38:53.623Z,13.70
2023-05-10T00:43:00.373Z,13.70
2023-05-10T00:47:06.493Z,13.70
2023-05-10T00:51:12.015Z,13.60
2023-05-10T00:55:17.875Z,13.60
2023-05-10T00:59:23.780Z,13.60
2023-05-10T01:03:30.165Z,13.60
2023-05-10T01:07:35.772Z,13.60
2023-05-10T01:11:41.775Z,13.60
2023-05-10T01:15:48.213Z,13.50
2023-05-10T01:19:53.814Z,13.50
2023-05-10T01:24:37.296Z,13.40
2023-05-10T01:29:04.301Z,13.40
2023-05-10T01:33:12.643Z,13.40
2023-05-10T01:37:29.576Z,13.30
2023-05-10T01:41:56.105Z,13.30
2023-05-10T01:46:17.746Z,13.30
2023-05-10T01:50:30.643Z,13.20
2023-05-10T01:54:40.445Z,13.20
2023-05-10T01:58:52.526Z,13.10
2023-05-10T02:02:58.954Z,13.10
2023-05-10T02:07:07.406Z,13.10
2023-05-10T02:11:15.101Z,13.10
2023-05-10T02:15:25.905Z,13.10
2023-05-10T02:19:33.130Z,13.00
2023-05-10T02:23:40.382Z,13.00
2023-05-10T02:27:47.384Z,12.90
2023-05-10T02:31:55.643Z,12.90
2023-05-10T02:36:02.869Z,12.80
2023-05-10T02:40:10.371Z,12.80
2023-05-10T02:44:18.910Z,12.70
2023-05-10T02:48:24.714Z,12.70
2023-05-10T02:52:42.413Z,12.70
2023-05-10T02:56:55.912Z,12.60
2023-05-10T03:01:01.779Z,12.60
2023-05-10T03:05:07.746Z,12.60
2023-05-10T03:09:16.653Z,12.60
2023-05-10T03:13:36.358Z,12.50
2023-05-10T03:18:19.198Z,12.40
2023-05-10T03:22:46.880Z,12.40
2023-05-10T03:26:58.061Z,12.40
2023-05-10T03:31:06.273Z,12.40
2023-05-10T03:35:14.182Z,12.30
2023-05-10T03:39:20.180Z,12.20
2023-05-10T03:43:25.719Z,12.20
2023-05-10T03:47:31.424Z,12.20
2023-05-10T03:51:37.066Z,12.20
2023-05-10T03:55:42.685Z,12.20
2023-05-10T03:59:48.290Z,12.20
2023-05-10T04:03:54.045Z,12.20
2023-05-10T04:07:59.675Z,12.10
2023-05-10T04:12:05.671Z,12.20
2023-05-10T04:16:11.178Z,12.20
2023-05-10T04:20:17.195Z,12.20
2023-05-10T04:24:23.249Z,12.30
2023-05-10T04:28:28.873Z,12.30
2023-05-10T04:32:34.532Z,12.30
2023-05-10T04:36:40.108Z,12.40
2023-05-10T04:40:45.718Z,12.40
2023-05-10T04:44:51.420Z,12.50
2023-05-10T04:48:56.986Z,12.50
2023-05-10T04:53:02.628Z,12.60
2023-05-10T04:57:08.263Z,12.70
2023-05-10T05:01:13.823Z,12.80
2023-05-10T05:05:19.505Z,12.80
2023-05-10T05:09:25.039Z,13.00
2023-05-10T05:13:30.752Z,13.10
2023-05-10T05:17:36.854Z,13.20
2023-05-10T05:21:42.570Z,13.30
2023-05-10T05:25:48.312Z,13.40
2023-05-10T05:29:55.335Z,13.40
2023-05-10T05:34:01.175Z,13.50
2023-05-10T05:38:07.160Z,13.50
2023-05-10T05:42:14.859Z,13.50
2023-05-10T05:46:20.600Z,13.50
2023-05-10T05:50:26.241Z,13.60
2023-05-10T05:54:33.025Z,13.80
2023-05-10T05:58:38.656Z,13.90
2023-05-10T06:02:44.649Z,14.10
2023-05-10T06:06:50.301Z,14.10
2023-05-10T06:10:55.959Z,14.20
2023-05-10T06:15:01.539Z,14.40
2023-05-10T06:19:07.276Z,14.50
2023-05-10T06:23:12.824Z,14.70
2023-05-10T06:27:18.492Z,14.80
2023-05-10T06:31:24.046Z,14.90
2023-05-10T06:35:30.519Z,15.10
2023-05-10T06:39:36.430Z,15.10
2023-05-10T06:43:42.686Z,15.30
2023-05-10T06:47:48.311Z,15.40
2023-05-10T06:51:53.847Z,15.60
2023-05-10T06:55:59.513Z,15.70
2023-05-10T07:00:06.391Z,15.70
2023-05-10T07:04:12.013Z,15.90
2023-05-10T07:08:17.557Z,16.10
2023-05-10T07:12:23.123Z,16.30
2023-05-10T07:16:28.856Z,16.40
2023-05-10T07:20:34.490Z,16.50
2023-05-10T07:24:40.062Z,16.70
2023-05-10T07:28:45.673Z,17.00
2023-05-10T07:32:51.381Z,17.20
2023-05-10T07:36:59.300Z,17.30
2023-05-10T07:41:04.930Z,17.50
2023-05-10T07:45:10.842Z,17.70
2023-05-10T07:49:17.063Z,18.00
2023-05-10T07:53:22.730Z,18.20
2023-05-10T07:57:28.609Z,18.30
2023-05-10T08:01:36.078Z,18.40
2023-05-10T08:05:42.154Z,18.60
2023-05-10T08:09:47.798Z,18.70
2023-05-10T08:13:53.894Z,18.80
2023-05-10T08:17:59.470Z,19.00
2023-05-10T08:22:05.262Z,19.20
2023-05-10T08:26:10.973Z,19.40
2023-05-10T08:30:16.642Z,19.50
2023-05-10T08:34:22.374Z,19.70
2023-05-10T08:38:28.233Z,19.80
2023-05-10T08:42:38.842Z,19.80
2023-05-10T08:46:48.120Z,19.90
2023-05-10T08:51:01.046Z,19.90
2023-05-10T08:55:10.037Z,20.10
2023-05-10T08:59:16.271Z,20.20
2023-05-10T09:03:21.914Z,20.40
2023-05-10T09:07:28.155Z,20.60
2023-05-10T09:11:34.104Z,20.80
2023-05-10T09:15:40.200Z,20.90
2023-05-10T09:19:46.760Z,21.00
2023-05-10T09:23:55.244Z,21.20
2023-05-10T09:28:01.235Z,21.40
2023-05-10T09:32:07.299Z,21.50
2023-05-10T09:36:13.576Z,21.70
2023-05-10T09:40:25.105Z,21.80
2023-05-10T09:44:35.322Z,21.90
2023-05-10T09:48:47.323Z,22.20
2023-05-10T09:53:01.971Z,22.30
2023-05-10T09:57:23.013Z,22.20
2023-05-10T10:01:28.989Z,22.10
2023-05-10T10:05:36.990Z,22.20
2023-05-10T10:09:45.769Z,22.30
2023-05-10T10:13:51.723Z,22.50
2023-05-10T10:17:57.381Z,22.60
2023-05-10T10:22:03.859Z,22.70
2023-05-10T10:26:09.639Z,22.80
2023-05-10T10:30:25.043Z,22.90
2023-05-10T10:34:32.871Z,22.90
2023-05-10T10:38:47.487Z,22.90
2023-05-10T10:42:54.678Z,23.10
2023-05-10T10:47:13.117Z,23.20
2023-05-10T10:51:21.246Z,23.30
2023-05-10T10:55:30.187Z,23.40
2023-05-10T10:59:35.769Z,23.50
2023-05-10T11:03:41.532Z,23.60
2023-05-10T11:07:58.966Z,23.40
2023-05-10T11:12:09.949Z,23.30
2023-05-10T11:16:25.098Z,23.30
2023-05-10T11:20:40.519Z,23.40
2023-05-10T11:24:59.625Z,23.60
2023-05-10T11:29:06.075Z,23.70
2023-05-10T11:33:17.881Z,23.80
2023-05-10T11:37:23.647Z,23.90
2023-05-10T11:41:31.630Z,23.80
2023-05-10T11:45:37.229Z,23.60
2023-05-10T11:49:46.714Z,23.70
2023-05-10T11:53:58.111Z,23.70
2023-05-10T11:58:04.014Z,23.70
2023-05-10T12:02:09.723Z,23.60
2023-05-10T12:06:17.101Z,23.60
2023-05-10T12:10:28.117Z,23.40
2023-05-10T12:14:36.417Z,23.40
2023-05-10T12:18:43.702Z,23.30
2023-05-10T12:23:00.716Z,23.20
2023-05-10T12:27:09.304Z,23.10
2023-05-10T12:31:15.377Z,23.00
2023-05-10T12:35:25.138Z,22.80
2023-05-10T12:39:57.367Z,22.70
2023-05-10T12:44:03.552Z,22.60
2023-05-10T12:48:09.151Z,22.50
2023-05-10T12:52:14.705Z,22.40
2023-05-10T12:56:21.095Z,22.30
2023-05-10T13:00:29.884Z,22.10
2023-05-10T13:04:35.604Z,21.90
2023-05-10T13:08:41.529Z,21.60
2023-05-10T13:12:47.113Z,21.20
2023-05-10T13:16:52.900Z,21.10
2023-05-10T13:20:58.716Z,21.00
2023-05-10T13:25:04.822Z,20.90
2023-05-10T13:29:10.623Z,20.70
2023-05-10T13:33:16.191Z,20.50
2023-05-10T13:37:22.567Z,20.20
2023-05-10T13:41:28.614Z,20.10
2023-05-10T13:45:34.256Z,20.00
2023-05-10T13:49:39.892Z,19.90
2023-05-10T13:53:45.473Z,19.80
2023-05-10T13:57:51.101Z,19.80
2023-05-10T14:01:56.743Z,19.70
2023-05-10T14:06:02.776Z,19.70
2023-05-10T14:10:08.984Z,19.70
2023-05-10T14:14:14.648Z,19.60
2023-05-10T14:18:20.459Z,19.40
2023-05-10T14:22:26.052Z,19.30
2023-05-10T14:26:37.617Z,19.20
2023-05-10T14:30:43.236Z,19.20
2023-05-10T14:34:48.881Z,19.10
2023-05-10T14:38:54.689Z,19.10
2023-05-10T14:43:00.739Z,19.10
2023-05-10T14:47:06.232Z,19.10
2023-05-10T14:51:14.811Z,19.10
2023-05-10T14:55:20.610Z,19.10
2023-05-10T14:59:26.268Z,19.10
2023-05-10T15:03:32.519Z,19.10
2023-05-10T15:07:39.138Z,19.20
2023-05-10T15:11:45.520Z,19.10
2023-05-10T15:15:51.252Z,19.20
2023-05-10T15:19:56.783Z,19.20
2023-05-10T15:24:02.346Z,19.20
2023-05-10T15:28:08.000Z,19.10
2023-05-10T15:32:13.587Z,19.10
2023-05-10T15:36:19.142Z,19.10
2023-05-10T15:40:24.707Z,19.10
2023-05-10T15:44:30.981Z,19.10
2023-05-10T15:48:36.622Z,19.10
2023-05-10T15:52:42.378Z,19.10
2023-05-10T15:56:48.006Z,19.10
2023-05-10T16:00:53.639Z,19.10
2023-05-10T16:04:59.216Z,19.00
2023-05-10T16:09:04.863Z,19.00
2023-05-10T16:13:10.611Z,19.00
2023-05-10T16:17:16.340Z,18.90
2023-05-10T16:21:22.354Z,19.00
2023-05-10T16:25:27.968Z,18.90
2023-05-10T16:29:33.553Z,18.90
2023-05-10T16:33:39.116Z,18.80
2023-05-10T16:37:44.761Z,18.80
2023-05-10T16:41:50.665Z,18.70
2023-05-10T16:45:56.882Z,18.70
2023-05-10T16:50:03.574Z,18.70
2023-05-10T16:54:09.145Z,18.70
2023-05-10T16:58:14.678Z,18.60
2023-05-10T17:02:21.188Z,18.60
2023-05-10T17:06:26.700Z,18.60
2023-05-10T17:10:32.366Z,18.60
2023-05-10T17:14:40.952Z,18.60
2023-05-10T17:18:46.607Z,18.60
2023-05-10T17:22:52.283Z,18.50
2023-05-10T17:26:57.885Z,18.50
2023-05-10T17:31:03.677Z,18.50
2023-05-10T17:35:09.900Z,18.50
2023-05-10T17:39:15.685Z,18.50
2023-05-10T17:43:21.633Z,18.50
2023-05-10T17:47:27.919Z,18.50
2023-05-10T17:51:33.506Z,18.50
2023-05-10T17:55:42.624Z,18.50
2023-05-10T17:59:48.069Z,18.50
2023-05-10T18:03:53.704Z,18.40
2023-05-10T18:07:59.220Z,18.40
2023-05-10T18:12:05.980Z,18.40
2023-05-10T18:16:13.479Z,18.30
2023-05-10T18:20:19.389Z,18.30
2023-05-10T18:24:37.576Z,18.30
2023-05-10T18:28:44.321Z,18.20
2023-05-10T18:32:50.043Z,18.20
2023-05-10T18:36:56.441Z,18.10
2023-05-10T18:41:02.165Z,18.10
2023-05-10T18:45:08.922Z,18.10
2023-05-10T18:49:14.549Z,18.00
2023-05-10T18:53:20.050Z,18.00
2023-05-10T18:57:25.673Z,17.90
2023-05-10T19:01:31.330Z,17.80
2023-05-10T19:05:36.879Z,17.80
2023-05-10T19:09:42.551Z,17.70
2023-05-10T19:13:48.268Z,17.60
2023-05-10T19:17:53.849Z,17.60
2023-05-10T19:21:59.400Z,17.50
2023-05-10T19:26:05.696Z,17.40
2023-05-10T19:30:12.048Z,17.40
2023-05-10T19:34:17.919Z,17.30
2023-05-10T19:38:25.561Z,17.30
2023-05-10T19:42:31.613Z,17.20
2023-05-10T19:46:37.226Z,17.00
2023-05-10T19:50:42.817Z,17.00
2023-05-10T19:54:48.613Z,16.90
2023-05-10T19:58:54.250Z,16.90
2023-05-10T20:02:59.823Z,16.80
2023-05-10T20:07:05.847Z,16.80
2023-05-10T20:11:12.364Z,16.70
2023-05-10T20:15:20.422Z,16.70
2023-05-10T20:19:26.203Z,16.70
2023-05-10T20:23:31.749Z,16.70
2023-05-10T20:27:37.721Z,16.60
2023-05-10T20:31:43.356Z,16.60
2023-05-10T20:35:51.340Z,16.50
2023-05-10T20:39:57.256Z,16.40
2023-05-10T20:44:02.968Z,16.30
2023-05-10T20:48:09.628Z,16.20
2023-05-10T20:52:15.723Z,16.20
2023-05-10T20:56:21.437Z,16.10
2023-05-10T21:00:27.024Z,16.00
2023-05-10T21:04:32.751Z,16.00
2023-05-10T21:08:38.380Z,15.90
2023-05-10T21:12:43.907Z,15.90
2023-05-10T21:16:51.195Z,15.90
2023-05-10T21:20:56.855Z,15.80
2023-05-10T21:25:02.438Z,15.80
2023-05-10T21:29:08.010Z,15.80
2023-05-10T21:33:14.649Z,15.70
2023-05-10T21:37:20.368Z,15.70
2023-05-10T21:41:26.368Z,15.70
2023-05-10T21:45:32.990Z,15.60
2023-05-10T21:49:38.559Z,15.60
2023-05-10T21:53:44.089Z,15.60
2023-05-10T21:57:51.370Z,15.60
2023-05-10T22:01:56.909Z,15.60
2023-05-10T22:06:02.482Z,15.50
2023-05-10T22:10:09.800Z,15.50
2023-05-10T22:14:15.460Z,15.40
2023-05-10T22:18:21.277Z,15.40
2023-05-10T22:22:27.000Z,15.30
2023-05-10T22:26:32.572Z,15.30
2023-05-10T22:30:38.119Z,15.20
2023-05-10T22:34:43.632Z,15.20
2023-05-10T22:38:49.245Z,15.20
2023-05-10T22:42:54.788Z,15.20
2023-05-10T22:47:00.492Z,15.10
2023-05-10T22:51:06.478Z,15.10
2023-05-10T22:55:12.161Z,15.10
2023-05-10T22:59:17.748Z,15.00
2023-05-10T23:03:23.579Z,15.00
2023-05-10T23:07:29.050Z,15.00
2023-05-10T23:11:34.544Z,15.10
2023-05-10T23:15:40.844Z,15.00
2023-05-10T23:19:46.303Z,15.10
2023-05-10T23:23:52.432Z,15.10
2023-05-10T23:27:58.034Z,15.00
2023-05-10T23:32:03.769Z,15.00
2023-05-10T23:36:09.839Z,15.00
2023-05-10T23:40:15.743Z,15.00
2023-05-10T23:44:21.361Z,15.00
2023-05-10T23:48:28.258Z,15.00
2023-05-10T23:52:33.777Z,15.00
2023-05-10T23:56:39.512Z,15.00
